Buffalo City, Wisconsin
Current Conditions -  °F | °C
As of 10:34 PM on Saturday 20 Dec 2014 (Local Time) from KONA Reporting Station
Haze Haze  
Wind Chill: 30°   Ceiling: 1200
Heat Index: 34°   Visibility: 4mi
Dew Point: 32°   Wind: 5mph
Humidity: 93%   Direction: 160°SSE
Pressure: 30.15"   Gusts: NA
Location:  44.2495°N, 91.8243°W
Report Text: KONA 210434Z AUTO 16004KT 4SM BR OVC012 01/00 A3015 RMK AO2
Loading
Personal Weather Stations






























Interactive Weather Map New forecast layout! Learn more

10-Day Weather Forecast

Advertisements
Track Severe Weather on mobile